sensor_id;sensor_type;location;lat;lon;timestamp;P1;durP1;ratioP1;P2;durP2;ratioP2
58414;SDS011;44210;42.706;18.344;2022-12-18T00:01:20;6.80;;;2.70;;
58414;SDS011;44210;42.706;18.344;2022-12-18T00:03:46;6.72;;;2.90;;
58414;SDS011;44210;42.706;18.344;2022-12-18T00:06:12;3.25;;;1.80;;
58414;SDS011;44210;42.706;18.344;2022-12-18T00:08:39;4.65;;;1.63;;
58414;SDS011;44210;42.706;18.344;2022-12-18T00:11:06;4.10;;;1.50;;
58414;SDS011;44210;42.706;18.344;2022-12-18T00:13:32;3.65;;;1.52;;
58414;SDS011;44210;42.706;18.344;2022-12-18T00:16:18;6.25;;;2.20;;
58414;SDS011;44210;42.706;18.344;2022-12-18T00:18:47;5.00;;;2.03;;
58414;SDS011;44210;42.706;18.344;2022-12-18T00:21:14;4.70;;;2.17;;
58414;SDS011;44210;42.706;18.344;2022-12-18T00:23:41;5.07;;;2.08;;
58414;SDS011;44210;42.706;18.344;2022-12-18T00:26:09;7.32;;;2.47;;
58414;SDS011;44210;42.706;18.344;2022-12-18T00:28:36;3.63;;;1.98;;
58414;SDS011;44210;42.706;18.344;2022-12-18T00:31:06;5.28;;;1.92;;
58414;SDS011;44210;42.706;18.344;2022-12-18T00:33:32;5.95;;;2.97;;
58414;SDS011;44210;42.706;18.344;2022-12-18T00:36:06;7.78;;;2.35;;
58414;SDS011;44210;42.706;18.344;2022-12-18T00:38:32;11.68;;;3.10;;
58414;SDS011;44210;42.706;18.344;2022-12-18T00:40:58;4.78;;;2.45;;
58414;SDS011;44210;42.706;18.344;2022-12-18T00:43:24;3.38;;;2.47;;
58414;SDS011;44210;42.706;18.344;2022-12-18T00:45:50;6.82;;;3.15;;
58414;SDS011;44210;42.706;18.344;2022-12-18T00:48:17;6.35;;;2.95;;
58414;SDS011;44210;42.706;18.344;2022-12-18T00:50:43;4.70;;;2.67;;
58414;SDS011;44210;42.706;18.344;2022-12-18T00:53:09;7.35;;;2.80;;
58414;SDS011;44210;42.706;18.344;2022-12-18T00:55:37;5.68;;;3.13;;
58414;SDS011;44210;42.706;18.344;2022-12-18T00:58:03;6.65;;;4.47;;
58414;SDS011;44210;42.706;18.344;2022-12-18T01:00:29;8.90;;;4.15;;
58414;SDS011;44210;42.706;18.344;2022-12-18T01:02:55;7.63;;;4.07;;
58414;SDS011;44210;42.706;18.344;2022-12-18T01:05:21;12.68;;;6.13;;
58414;SDS011;44210;42.706;18.344;2022-12-18T01:07:48;9.00;;;5.25;;
58414;SDS011;44210;42.706;18.344;2022-12-18T01:10:14;9.77;;;4.15;;
58414;SDS011;44210;42.706;18.344;2022-12-18T01:12:40;10.93;;;4.80;;
58414;SDS011;44210;42.706;18.344;2022-12-18T01:15:06;13.57;;;4.32;;
58414;SDS011;44210;42.706;18.344;2022-12-18T01:17:33;8.75;;;4.32;;
58414;SDS011;44210;42.706;18.344;2022-12-18T01:19:59;5.43;;;3.30;;
58414;SDS011;44210;42.706;18.344;2022-12-18T01:22:25;9.98;;;4.57;;
58414;SDS011;44210;42.706;18.344;2022-12-18T01:24:51;4.28;;;3.05;;
58414;SDS011;44210;42.706;18.344;2022-12-18T01:27:17;6.00;;;3.30;;
58414;SDS011;44210;42.706;18.344;2022-12-18T01:29:43;6.35;;;3.17;;
58414;SDS011;44210;42.706;18.344;2022-12-18T01:32:09;8.85;;;3.60;;
58414;SDS011;44210;42.706;18.344;2022-12-18T01:34:36;7.78;;;3.13;;
58414;SDS011;44210;42.706;18.344;2022-12-18T01:37:02;7.63;;;3.85;;
58414;SDS011;44210;42.706;18.344;2022-12-18T01:39:29;10.10;;;4.70;;
58414;SDS011;44210;42.706;18.344;2022-12-18T01:41:56;14.70;;;5.18;;
58414;SDS011;44210;42.706;18.344;2022-12-18T01:49:58;5.85;;;3.30;;
58414;SDS011;44210;42.706;18.344;2022-12-18T01:52:26;3.88;;;3.08;;
58414;SDS011;44210;42.706;18.344;2022-12-18T01:54:53;2.70;;;1.83;;
58414;SDS011;44210;42.706;18.344;2022-12-18T01:57:20;3.10;;;1.45;;
58414;SDS011;44210;42.706;18.344;2022-12-18T01:59:47;1.27;;;1.15;;
58414;SDS011;44210;42.706;18.344;2022-12-18T02:02:15;1.73;;;1.10;;
58414;SDS011;44210;42.706;18.344;2022-12-18T02:04:41;1.98;;;1.08;;
58414;SDS011;44210;42.706;18.344;2022-12-18T02:09:42;3.50;;;1.30;;
58414;SDS011;44210;42.706;18.344;2022-12-18T02:14:42;2.85;;;1.42;;
58414;SDS011;44210;42.706;18.344;2022-12-18T02:25:05;2.42;;;1.25;;
58414;SDS011;44210;42.706;18.344;2022-12-18T02:27:33;1.90;;;1.42;;
58414;SDS011;44210;42.706;18.344;2022-12-18T02:30:03;2.17;;;1.10;;
58414;SDS011;44210;42.706;18.344;2022-12-18T02:32:40;5.30;;;1.40;;
58414;SDS011;44210;42.706;18.344;2022-12-18T02:35:09;1.95;;;1.33;;
58414;SDS011;44210;42.706;18.344;2022-12-18T02:37:36;3.15;;;1.52;;
58414;SDS011;44210;42.706;18.344;2022-12-18T02:40:03;1.98;;;1.67;;
58414;SDS011;44210;42.706;18.344;2022-12-18T02:42:30;2.30;;;1.67;;
58414;SDS011;44210;42.706;18.344;2022-12-18T02:44:56;2.35;;;1.30;;
58414;SDS011;44210;42.706;18.344;2022-12-18T02:47:24;2.42;;;1.40;;
58414;SDS011;44210;42.706;18.344;2022-12-18T02:52:34;3.55;;;1.52;;
58414;SDS011;44210;42.706;18.344;2022-12-18T02:58:02;2.92;;;1.88;;
58414;SDS011;44210;42.706;18.344;2022-12-18T03:00:42;3.13;;;1.75;;
58414;SDS011;44210;42.706;18.344;2022-12-18T03:03:11;1.88;;;1.40;;
58414;SDS011;44210;42.706;18.344;2022-12-18T03:05:45;4.13;;;1.38;;
58414;SDS011;44210;42.706;18.344;2022-12-18T03:08:23;2.13;;;1.33;;
58414;SDS011;44210;42.706;18.344;2022-12-18T03:11:12;1.45;;;1.23;;
58414;SDS011;44210;42.706;18.344;2022-12-18T03:13:42;2.42;;;1.48;;
58414;SDS011;44210;42.706;18.344;2022-12-18T03:16:10;2.38;;;1.35;;
58414;SDS011;44210;42.706;18.344;2022-12-18T03:18:48;2.00;;;1.23;;
58414;SDS011;44210;42.706;18.344;2022-12-18T03:21:16;3.65;;;1.20;;
58414;SDS011;44210;42.706;18.344;2022-12-18T03:23:44;2.08;;;1.35;;
58414;SDS011;44210;42.706;18.344;2022-12-18T03:26:13;5.00;;;1.40;;
58414;SDS011;44210;42.706;18.344;2022-12-18T03:28:42;1.65;;;1.20;;
58414;SDS011;44210;42.706;18.344;2022-12-18T03:31:09;3.08;;;1.33;;
58414;SDS011;44210;42.706;18.344;2022-12-18T03:33:38;5.38;;;1.52;;
58414;SDS011;44210;42.706;18.344;2022-12-18T03:36:06;4.28;;;1.38;;
58414;SDS011;44210;42.706;18.344;2022-12-18T03:38:32;3.92;;;1.50;;
58414;SDS011;44210;42.706;18.344;2022-12-18T03:43:34;5.00;;;1.45;;
58414;SDS011;44210;42.706;18.344;2022-12-18T03:47:05;2.90;;;1.58;;
58414;SDS011;44210;42.706;18.344;2022-12-18T03:49:01;3.95;;;1.55;;
58414;SDS011;44210;42.706;18.344;2022-12-18T03:54:35;4.63;;;1.60;;
58414;SDS011;44210;42.706;18.344;2022-12-18T03:57:06;4.20;;;1.52;;
58414;SDS011;44210;42.706;18.344;2022-12-18T04:02:01;2.70;;;1.50;;
58414;SDS011;44210;42.706;18.344;2022-12-18T04:04:28;2.13;;;1.30;;
58414;SDS011;44210;42.706;18.344;2022-12-18T04:06:55;1.90;;;1.50;;
58414;SDS011;44210;42.706;18.344;2022-12-18T04:09:22;2.58;;;1.70;;
58414;SDS011;44210;42.706;18.344;2022-12-18T04:11:48;3.80;;;1.70;;
58414;SDS011;44210;42.706;18.344;2022-12-18T04:14:14;2.80;;;2.13;;
58414;SDS011;44210;42.706;18.344;2022-12-18T04:16:40;5.20;;;1.80;;
58414;SDS011;44210;42.706;18.344;2022-12-18T04:19:06;3.92;;;1.90;;
58414;SDS011;44210;42.706;18.344;2022-12-18T04:21:32;2.00;;;1.77;;
58414;SDS011;44210;42.706;18.344;2022-12-18T04:23:58;5.03;;;1.80;;
58414;SDS011;44210;42.706;18.344;2022-12-18T04:26:24;3.75;;;1.90;;
58414;SDS011;44210;42.706;18.344;2022-12-18T04:28:51;4.03;;;2.22;;
58414;SDS011;44210;42.706;18.344;2022-12-18T04:31:16;4.22;;;2.10;;
58414;SDS011;44210;42.706;18.344;2022-12-18T04:33:43;4.32;;;2.03;;
58414;SDS011;44210;42.706;18.344;2022-12-18T04:36:09;3.90;;;2.30;;
58414;SDS011;44210;42.706;18.344;2022-12-18T04:38:35;6.15;;;2.50;;
58414;SDS011;44210;42.706;18.344;2022-12-18T04:41:01;4.90;;;2.58;;
58414;SDS011;44210;42.706;18.344;2022-12-18T04:43:27;8.02;;;2.00;;
58414;SDS011;44210;42.706;18.344;2022-12-18T04:45:53;2.67;;;2.10;;
58414;SDS011;44210;42.706;18.344;2022-12-18T04:48:19;4.30;;;2.17;;
58414;SDS011;44210;42.706;18.344;2022-12-18T04:50:46;3.58;;;1.77;;
58414;SDS011;44210;42.706;18.344;2022-12-18T04:53:12;7.13;;;2.00;;
58414;SDS011;44210;42.706;18.344;2022-12-18T04:55:38;5.45;;;2.00;;
58414;SDS011;44210;42.706;18.344;2022-12-18T04:58:04;3.92;;;2.08;;
58414;SDS011;44210;42.706;18.344;2022-12-18T05:00:31;4.13;;;1.80;;
58414;SDS011;44210;42.706;18.344;2022-12-18T05:03:00;3.67;;;2.42;;
58414;SDS011;44210;42.706;18.344;2022-12-18T05:05:26;3.58;;;2.00;;
58414;SDS011;44210;42.706;18.344;2022-12-18T05:07:52;6.22;;;2.08;;
58414;SDS011;44210;42.706;18.344;2022-12-18T05:10:18;5.47;;;2.17;;
58414;SDS011;44210;42.706;18.344;2022-12-18T05:12:44;4.57;;;2.00;;
58414;SDS011;44210;42.706;18.344;2022-12-18T05:15:23;3.60;;;2.00;;
58414;SDS011;44210;42.706;18.344;2022-12-18T05:17:49;2.65;;;1.75;;
58414;SDS011;44210;42.706;18.344;2022-12-18T05:20:15;4.07;;;1.95;;
58414;SDS011;44210;42.706;18.344;2022-12-18T05:22:41;5.25;;;2.30;;
58414;SDS011;44210;42.706;18.344;2022-12-18T05:25:07;6.82;;;2.38;;
58414;SDS011;44210;42.706;18.344;2022-12-18T05:27:33;2.60;;;1.90;;
58414;SDS011;44210;42.706;18.344;2022-12-18T05:29:59;3.25;;;1.83;;
58414;SDS011;44210;42.706;18.344;2022-12-18T05:32:25;4.43;;;2.25;;
58414;SDS011;44210;42.706;18.344;2022-12-18T05:34:51;5.07;;;2.10;;
58414;SDS011;44210;42.706;18.344;2022-12-18T05:37:17;4.97;;;2.42;;
58414;SDS011;44210;42.706;18.344;2022-12-18T05:39:43;5.05;;;1.95;;
58414;SDS011;44210;42.706;18.344;2022-12-18T05:42:09;3.05;;;1.90;;
58414;SDS011;44210;42.706;18.344;2022-12-18T05:44:35;2.97;;;2.13;;
58414;SDS011;44210;42.706;18.344;2022-12-18T05:47:01;4.35;;;2.03;;
58414;SDS011;44210;42.706;18.344;2022-12-18T05:49:27;4.30;;;2.67;;
58414;SDS011;44210;42.706;18.344;2022-12-18T05:51:53;3.47;;;2.28;;
58414;SDS011;44210;42.706;18.344;2022-12-18T05:54:19;3.38;;;2.53;;
58414;SDS011;44210;42.706;18.344;2022-12-18T05:56:46;4.88;;;2.33;;
58414;SDS011;44210;42.706;18.344;2022-12-18T05:59:12;5.05;;;2.10;;
58414;SDS011;44210;42.706;18.344;2022-12-18T06:01:38;3.42;;;2.13;;
58414;SDS011;44210;42.706;18.344;2022-12-18T06:04:04;4.63;;;2.10;;
58414;SDS011;44210;42.706;18.344;2022-12-18T06:06:30;5.72;;;2.00;;
58414;SDS011;44210;42.706;18.344;2022-12-18T06:08:56;3.20;;;2.35;;
58414;SDS011;44210;42.706;18.344;2022-12-18T06:11:23;2.67;;;1.98;;
58414;SDS011;44210;42.706;18.344;2022-12-18T06:13:53;4.50;;;2.72;;
58414;SDS011;44210;42.706;18.344;2022-12-18T06:16:19;4.95;;;2.20;;
58414;SDS011;44210;42.706;18.344;2022-12-18T06:18:45;3.38;;;2.42;;
58414;SDS011;44210;42.706;18.344;2022-12-18T06:21:11;5.30;;;2.85;;
58414;SDS011;44210;42.706;18.344;2022-12-18T06:23:38;4.28;;;2.80;;
58414;SDS011;44210;42.706;18.344;2022-12-18T06:26:06;4.97;;;2.40;;
58414;SDS011;44210;42.706;18.344;2022-12-18T06:28:32;5.28;;;2.50;;
58414;SDS011;44210;42.706;18.344;2022-12-18T06:30:58;5.30;;;2.17;;
58414;SDS011;44210;42.706;18.344;2022-12-18T06:33:25;4.45;;;3.35;;
58414;SDS011;44210;42.706;18.344;2022-12-18T06:35:52;3.50;;;2.53;;
58414;SDS011;44210;42.706;18.344;2022-12-18T06:38:18;6.75;;;3.50;;
58414;SDS011;44210;42.706;18.344;2022-12-18T06:40:44;6.93;;;3.00;;
58414;SDS011;44210;42.706;18.344;2022-12-18T06:43:10;5.18;;;3.05;;
58414;SDS011;44210;42.706;18.344;2022-12-18T06:45:36;5.70;;;3.00;;
58414;SDS011;44210;42.706;18.344;2022-12-18T06:48:03;4.70;;;2.78;;
58414;SDS011;44210;42.706;18.344;2022-12-18T06:50:29;6.80;;;3.22;;
58414;SDS011;44210;42.706;18.344;2022-12-18T06:52:55;9.38;;;3.25;;
58414;SDS011;44210;42.706;18.344;2022-12-18T06:55:21;5.97;;;2.60;;
58414;SDS011;44210;42.706;18.344;2022-12-18T06:57:47;4.97;;;2.75;;
58414;SDS011;44210;42.706;18.344;2022-12-18T07:00:13;6.63;;;2.45;;
58414;SDS011;44210;42.706;18.344;2022-12-18T07:02:39;4.30;;;2.97;;
58414;SDS011;44210;42.706;18.344;2022-12-18T07:05:05;3.75;;;2.72;;
58414;SDS011;44210;42.706;18.344;2022-12-18T07:07:33;7.40;;;2.50;;
58414;SDS011;44210;42.706;18.344;2022-12-18T07:09:59;6.80;;;3.00;;
58414;SDS011;44210;42.706;18.344;2022-12-18T07:12:26;3.33;;;2.67;;
58414;SDS011;44210;42.706;18.344;2022-12-18T07:14:52;8.90;;;2.72;;
58414;SDS011;44210;42.706;18.344;2022-12-18T07:17:18;6.32;;;2.70;;
58414;SDS011;44210;42.706;18.344;2022-12-18T07:19:44;5.22;;;3.00;;
58414;SDS011;44210;42.706;18.344;2022-12-18T07:22:10;5.22;;;3.53;;
58414;SDS011;44210;42.706;18.344;2022-12-18T07:24:36;5.93;;;2.50;;
58414;SDS011;44210;42.706;18.344;2022-12-18T07:27:02;4.63;;;3.35;;
58414;SDS011;44210;42.706;18.344;2022-12-18T07:29:29;8.10;;;2.58;;
58414;SDS011;44210;42.706;18.344;2022-12-18T07:31:55;5.35;;;2.63;;
58414;SDS011;44210;42.706;18.344;2022-12-18T07:34:21;5.22;;;3.38;;
58414;SDS011;44210;42.706;18.344;2022-12-18T07:36:47;4.88;;;2.90;;
58414;SDS011;44210;42.706;18.344;2022-12-18T07:39:13;6.32;;;3.13;;
58414;SDS011;44210;42.706;18.344;2022-12-18T07:41:40;6.93;;;4.18;;
58414;SDS011;44210;42.706;18.344;2022-12-18T07:44:10;6.03;;;3.95;;
58414;SDS011;44210;42.706;18.344;2022-12-18T07:46:36;5.38;;;3.85;;
58414;SDS011;44210;42.706;18.344;2022-12-18T07:49:02;4.93;;;3.50;;
58414;SDS011;44210;42.706;18.344;2022-12-18T07:51:28;5.00;;;2.90;;
58414;SDS011;44210;42.706;18.344;2022-12-18T07:53:54;3.95;;;2.90;;
58414;SDS011;44210;42.706;18.344;2022-12-18T07:56:20;4.78;;;3.40;;
58414;SDS011;44210;42.706;18.344;2022-12-18T07:58:46;5.43;;;2.95;;
58414;SDS011;44210;42.706;18.344;2022-12-18T08:01:12;4.70;;;2.90;;
58414;SDS011;44210;42.706;18.344;2022-12-18T08:03:39;5.63;;;2.95;;
58414;SDS011;44210;42.706;18.344;2022-12-18T08:06:06;4.63;;;3.13;;
58414;SDS011;44210;42.706;18.344;2022-12-18T08:08:34;6.15;;;2.97;;
58414;SDS011;44210;42.706;18.344;2022-12-18T08:11:00;9.32;;;3.05;;
58414;SDS011;44210;42.706;18.344;2022-12-18T08:13:27;3.53;;;2.60;;
58414;SDS011;44210;42.706;18.344;2022-12-18T08:16:03;5.38;;;3.33;;
58414;SDS011;44210;42.706;18.344;2022-12-18T08:18:31;7.78;;;3.38;;
58414;SDS011;44210;42.706;18.344;2022-12-18T08:20:57;5.50;;;2.97;;
58414;SDS011;44210;42.706;18.344;2022-12-18T08:23:23;5.47;;;3.65;;
58414;SDS011;44210;42.706;18.344;2022-12-18T08:25:49;4.10;;;2.63;;
58414;SDS011;44210;42.706;18.344;2022-12-18T08:28:16;5.63;;;3.10;;
58414;SDS011;44210;42.706;18.344;2022-12-18T08:30:42;4.88;;;3.63;;
58414;SDS011;44210;42.706;18.344;2022-12-18T08:33:08;5.85;;;3.35;;
58414;SDS011;44210;42.706;18.344;2022-12-18T08:35:35;8.07;;;5.40;;
58414;SDS011;44210;42.706;18.344;2022-12-18T08:38:01;7.32;;;4.60;;
58414;SDS011;44210;42.706;18.344;2022-12-18T08:40:28;14.60;;;6.72;;
58414;SDS011;44210;42.706;18.344;2022-12-18T08:42:54;13.98;;;8.23;;
58414;SDS011;44210;42.706;18.344;2022-12-18T08:45:39;7.20;;;5.05;;
58414;SDS011;44210;42.706;18.344;2022-12-18T08:48:05;6.70;;;4.10;;
58414;SDS011;44210;42.706;18.344;2022-12-18T08:50:31;4.78;;;3.00;;
58414;SDS011;44210;42.706;18.344;2022-12-18T08:52:57;5.60;;;3.33;;
58414;SDS011;44210;42.706;18.344;2022-12-18T08:55:23;6.45;;;3.42;;
58414;SDS011;44210;42.706;18.344;2022-12-18T08:57:49;8.05;;;4.82;;
58414;SDS011;44210;42.706;18.344;2022-12-18T09:00:16;8.75;;;5.57;;
58414;SDS011;44210;42.706;18.344;2022-12-18T09:02:42;7.45;;;3.65;;
58414;SDS011;44210;42.706;18.344;2022-12-18T09:05:08;7.32;;;3.75;;
58414;SDS011;44210;42.706;18.344;2022-12-18T09:07:34;6.60;;;3.58;;
58414;SDS011;44210;42.706;18.344;2022-12-18T09:10:00;7.90;;;4.00;;
58414;SDS011;44210;42.706;18.344;2022-12-18T09:12:26;9.57;;;3.70;;
58414;SDS011;44210;42.706;18.344;2022-12-18T09:14:52;7.03;;;3.90;;
58414;SDS011;44210;42.706;18.344;2022-12-18T09:17:18;4.55;;;3.42;;
58414;SDS011;44210;42.706;18.344;2022-12-18T09:19:44;4.35;;;3.53;;
58414;SDS011;44210;42.706;18.344;2022-12-18T09:22:12;5.38;;;3.83;;
58414;SDS011;44210;42.706;18.344;2022-12-18T09:24:38;4.47;;;3.67;;
58414;SDS011;44210;42.706;18.344;2022-12-18T09:27:04;6.05;;;4.30;;
58414;SDS011;44210;42.706;18.344;2022-12-18T09:29:31;12.20;;;6.18;;
58414;SDS011;44210;42.706;18.344;2022-12-18T09:31:57;8.30;;;4.57;;
58414;SDS011;44210;42.706;18.344;2022-12-18T09:34:24;4.90;;;4.00;;
58414;SDS011;44210;42.706;18.344;2022-12-18T09:36:50;8.18;;;3.97;;
58414;SDS011;44210;42.706;18.344;2022-12-18T09:39:16;4.88;;;3.78;;
58414;SDS011;44210;42.706;18.344;2022-12-18T09:44:19;8.55;;;4.55;;
58414;SDS011;44210;42.706;18.344;2022-12-18T09:49:32;5.82;;;4.60;;
58414;SDS011;44210;42.706;18.344;2022-12-18T09:54:29;5.90;;;4.35;;
58414;SDS011;44210;42.706;18.344;2022-12-18T09:56:57;6.22;;;4.15;;
58414;SDS011;44210;42.706;18.344;2022-12-18T09:59:24;8.52;;;4.28;;
58414;SDS011;44210;42.706;18.344;2022-12-18T10:01:50;7.22;;;4.90;;
58414;SDS011;44210;42.706;18.344;2022-12-18T10:04:17;4.97;;;4.30;;
58414;SDS011;44210;42.706;18.344;2022-12-18T10:06:55;5.40;;;4.10;;
58414;SDS011;44210;42.706;18.344;2022-12-18T10:09:37;5.97;;;4.07;;
58414;SDS011;44210;42.706;18.344;2022-12-18T10:22:22;6.68;;;4.45;;
58414;SDS011;44210;42.706;18.344;2022-12-18T10:27:21;7.90;;;4.80;;
58414;SDS011;44210;42.706;18.344;2022-12-18T10:29:48;7.38;;;4.10;;
58414;SDS011;44210;42.706;18.344;2022-12-18T10:32:24;5.68;;;3.90;;
58414;SDS011;44210;42.706;18.344;2022-12-18T10:34:51;7.53;;;4.18;;
58414;SDS011;44210;42.706;18.344;2022-12-18T10:37:19;5.80;;;4.03;;
58414;SDS011;44210;42.706;18.344;2022-12-18T10:39:46;5.45;;;3.67;;
58414;SDS011;44210;42.706;18.344;2022-12-18T10:42:18;5.00;;;3.50;;
58414;SDS011;44210;42.706;18.344;2022-12-18T10:44:45;5.28;;;3.15;;
58414;SDS011;44210;42.706;18.344;2022-12-18T10:47:12;5.88;;;3.75;;
58414;SDS011;44210;42.706;18.344;2022-12-18T10:49:42;6.00;;;3.92;;
58414;SDS011;44210;42.706;18.344;2022-12-18T10:55:01;5.03;;;3.78;;
58414;SDS011;44210;42.706;18.344;2022-12-18T10:57:40;8.05;;;4.45;;
58414;SDS011;44210;42.706;18.344;2022-12-18T11:02:52;10.48;;;4.97;;
58414;SDS011;44210;42.706;18.344;2022-12-18T11:07:50;7.45;;;3.95;;
58414;SDS011;44210;42.706;18.344;2022-12-18T11:10:19;4.65;;;3.00;;
58414;SDS011;44210;42.706;18.344;2022-12-18T11:12:46;4.43;;;3.30;;
58414;SDS011;44210;42.706;18.344;2022-12-18T11:15:16;5.25;;;3.63;;
58414;SDS011;44210;42.706;18.344;2022-12-18T11:17:44;5.68;;;3.97;;
58414;SDS011;44210;42.706;18.344;2022-12-18T11:20:20;7.15;;;3.67;;
58414;SDS011;44210;42.706;18.344;2022-12-18T11:22:56;7.85;;;3.83;;
58414;SDS011;44210;42.706;18.344;2022-12-18T11:25:23;6.68;;;3.88;;
58414;SDS011;44210;42.706;18.344;2022-12-18T11:27:54;7.38;;;4.47;;
58414;SDS011;44210;42.706;18.344;2022-12-18T11:30:24;5.55;;;4.15;;
58414;SDS011;44210;42.706;18.344;2022-12-18T11:32:52;5.68;;;3.75;;
58414;SDS011;44210;42.706;18.344;2022-12-18T11:36:04;8.05;;;3.92;;
58414;SDS011;44210;42.706;18.344;2022-12-18T11:38:16;8.63;;;3.72;;
58414;SDS011;44210;42.706;18.344;2022-12-18T11:40:44;9.57;;;3.97;;
58414;SDS011;44210;42.706;18.344;2022-12-18T11:43:31;11.40;;;4.25;;
58414;SDS011;44210;42.706;18.344;2022-12-18T11:46:07;16.48;;;4.43;;
58414;SDS011;44210;42.706;18.344;2022-12-18T11:48:45;8.02;;;3.90;;
58414;SDS011;44210;42.706;18.344;2022-12-18T11:51:19;7.03;;;3.85;;
58414;SDS011;44210;42.706;18.344;2022-12-18T11:53:47;6.85;;;3.60;;
58414;SDS011;44210;42.706;18.344;2022-12-18T12:21:17;5.68;;;3.80;;
58414;SDS011;44210;42.706;18.344;2022-12-18T12:26:34;7.97;;;3.45;;
58414;SDS011;44210;42.706;18.344;2022-12-18T12:29:05;6.20;;;3.47;;
58414;SDS011;44210;42.706;18.344;2022-12-18T12:34:20;4.45;;;3.20;;
58414;SDS011;44210;42.706;18.344;2022-12-18T12:39:39;4.30;;;2.95;;
58414;SDS011;44210;42.706;18.344;2022-12-18T12:42:04;9.02;;;3.50;;
58414;SDS011;44210;42.706;18.344;2022-12-18T12:44:51;8.10;;;3.63;;
58414;SDS011;44210;42.706;18.344;2022-12-18T12:47:20;7.75;;;3.83;;
58414;SDS011;44210;42.706;18.344;2022-12-18T12:49:48;6.80;;;4.05;;
58414;SDS011;44210;42.706;18.344;2022-12-18T12:52:17;7.43;;;3.42;;
58414;SDS011;44210;42.706;18.344;2022-12-18T12:54:44;7.05;;;3.47;;
58414;SDS011;44210;42.706;18.344;2022-12-18T12:57:12;8.15;;;3.53;;
58414;SDS011;44210;42.706;18.344;2022-12-18T12:59:48;7.20;;;3.97;;
58414;SDS011;44210;42.706;18.344;2022-12-18T13:04:58;8.63;;;4.10;;
58414;SDS011;44210;42.706;18.344;2022-12-18T13:07:27;7.30;;;3.53;;
58414;SDS011;44210;42.706;18.344;2022-12-18T13:10:11;10.43;;;4.20;;
58414;SDS011;44210;42.706;18.344;2022-12-18T13:15:38;5.80;;;4.65;;
58414;SDS011;44210;42.706;18.344;2022-12-18T13:25:48;7.40;;;3.20;;
58414;SDS011;44210;42.706;18.344;2022-12-18T13:28:14;6.47;;;3.30;;
58414;SDS011;44210;42.706;18.344;2022-12-18T13:30:42;6.55;;;3.60;;
58414;SDS011;44210;42.706;18.344;2022-12-18T13:45:48;11.05;;;6.10;;
58414;SDS011;44210;42.706;18.344;2022-12-18T13:48:19;8.77;;;4.93;;
58414;SDS011;44210;42.706;18.344;2022-12-18T13:51:05;10.02;;;4.30;;
58414;SDS011;44210;42.706;18.344;2022-12-18T13:55:58;10.10;;;4.53;;
58414;SDS011;44210;42.706;18.344;2022-12-18T13:58:25;8.38;;;4.07;;
58414;SDS011;44210;42.706;18.344;2022-12-18T14:00:51;5.85;;;4.35;;
58414;SDS011;44210;42.706;18.344;2022-12-18T14:03:21;10.43;;;4.60;;
58414;SDS011;44210;42.706;18.344;2022-12-18T14:05:52;18.58;;;4.68;;
58414;SDS011;44210;42.706;18.344;2022-12-18T14:08:18;8.45;;;4.45;;
58414;SDS011;44210;42.706;18.344;2022-12-18T14:10:45;9.50;;;4.40;;
58414;SDS011;44210;42.706;18.344;2022-12-18T14:13:15;7.63;;;3.67;;
58414;SDS011;44210;42.706;18.344;2022-12-18T14:15:43;5.88;;;4.18;;
58414;SDS011;44210;42.706;18.344;2022-12-18T14:20:43;10.30;;;4.82;;
58414;SDS011;44210;42.706;18.344;2022-12-18T14:25:54;7.00;;;4.80;;
58414;SDS011;44210;42.706;18.344;2022-12-18T14:28:20;22.30;;;7.38;;
58414;SDS011;44210;42.706;18.344;2022-12-18T14:30:47;10.95;;;4.88;;
58414;SDS011;44210;42.706;18.344;2022-12-18T14:33:14;7.35;;;4.70;;
58414;SDS011;44210;42.706;18.344;2022-12-18T14:35:41;12.57;;;5.28;;
58414;SDS011;44210;42.706;18.344;2022-12-18T14:41:00;11.10;;;5.47;;
58414;SDS011;44210;42.706;18.344;2022-12-18T14:43:27;14.52;;;4.57;;
58414;SDS011;44210;42.706;18.344;2022-12-18T14:45:54;7.55;;;4.82;;
58414;SDS011;44210;42.706;18.344;2022-12-18T14:50:53;8.38;;;5.20;;
58414;SDS011;44210;42.706;18.344;2022-12-18T14:53:28;11.57;;;5.25;;
58414;SDS011;44210;42.706;18.344;2022-12-18T14:55:55;12.02;;;5.70;;
58414;SDS011;44210;42.706;18.344;2022-12-18T14:58:21;15.65;;;5.38;;
58414;SDS011;44210;42.706;18.344;2022-12-18T15:00:47;7.30;;;4.60;;
58414;SDS011;44210;42.706;18.344;2022-12-18T15:03:15;9.40;;;6.47;;
58414;SDS011;44210;42.706;18.344;2022-12-18T15:05:43;11.07;;;7.60;;
58414;SDS011;44210;42.706;18.344;2022-12-18T15:10:54;19.77;;;7.57;;
58414;SDS011;44210;42.706;18.344;2022-12-18T15:13:22;10.10;;;7.03;;
58414;SDS011;44210;42.706;18.344;2022-12-18T15:15:49;9.30;;;5.97;;
58414;SDS011;44210;42.706;18.344;2022-12-18T15:18:16;9.68;;;5.47;;
58414;SDS011;44210;42.706;18.344;2022-12-18T15:20:48;13.98;;;5.75;;
58414;SDS011;44210;42.706;18.344;2022-12-18T15:25:56;12.63;;;7.03;;
58414;SDS011;44210;42.706;18.344;2022-12-18T15:28:24;8.48;;;6.13;;
58414;SDS011;44210;42.706;18.344;2022-12-18T15:31:28;10.95;;;7.18;;
58414;SDS011;44210;42.706;18.344;2022-12-18T15:36:14;8.52;;;6.25;;
58414;SDS011;44210;42.706;18.344;2022-12-18T15:38:41;9.88;;;6.50;;
58414;SDS011;44210;42.706;18.344;2022-12-18T15:41:17;10.30;;;6.53;;
58414;SDS011;44210;42.706;18.344;2022-12-18T15:43:44;7.90;;;5.50;;
58414;SDS011;44210;42.706;18.344;2022-12-18T15:46:13;10.65;;;6.45;;
58414;SDS011;44210;42.706;18.344;2022-12-18T15:48:41;11.40;;;7.07;;
58414;SDS011;44210;42.706;18.344;2022-12-18T15:51:20;8.95;;;6.85;;
58414;SDS011;44210;42.706;18.344;2022-12-18T15:53:47;9.77;;;7.38;;
58414;SDS011;44210;42.706;18.344;2022-12-18T15:56:14;13.10;;;8.65;;
58414;SDS011;44210;42.706;18.344;2022-12-18T15:59:00;13.32;;;8.50;;
58414;SDS011;44210;42.706;18.344;2022-12-18T16:01:27;8.93;;;7.47;;
58414;SDS011;44210;42.706;18.344;2022-12-18T16:03:54;11.50;;;6.95;;
58414;SDS011;44210;42.706;18.344;2022-12-18T16:06:21;13.60;;;7.45;;
58414;SDS011;44210;42.706;18.344;2022-12-18T16:08:47;11.10;;;7.50;;
58414;SDS011;44210;42.706;18.344;2022-12-18T16:11:16;12.05;;;7.45;;
58414;SDS011;44210;42.706;18.344;2022-12-18T16:14:03;9.85;;;6.93;;
58414;SDS011;44210;42.706;18.344;2022-12-18T16:16:29;11.23;;;6.70;;
58414;SDS011;44210;42.706;18.344;2022-12-18T16:18:55;8.13;;;6.00;;
58414;SDS011;44210;42.706;18.344;2022-12-18T16:21:21;10.55;;;7.43;;
58414;SDS011;44210;42.706;18.344;2022-12-18T16:23:47;10.00;;;7.32;;
58414;SDS011;44210;42.706;18.344;2022-12-18T16:26:13;7.97;;;6.38;;
58414;SDS011;44210;42.706;18.344;2022-12-18T16:28:39;7.78;;;6.30;;
58414;SDS011;44210;42.706;18.344;2022-12-18T16:31:05;10.10;;;5.45;;
58414;SDS011;44210;42.706;18.344;2022-12-18T16:33:31;10.32;;;6.40;;
58414;SDS011;44210;42.706;18.344;2022-12-18T16:35:57;11.18;;;6.22;;
58414;SDS011;44210;42.706;18.344;2022-12-18T16:38:23;8.40;;;5.72;;
58414;SDS011;44210;42.706;18.344;2022-12-18T16:40:49;8.27;;;5.65;;
58414;SDS011;44210;42.706;18.344;2022-12-18T16:43:34;7.57;;;5.30;;
58414;SDS011;44210;42.706;18.344;2022-12-18T16:46:00;7.18;;;5.32;;
58414;SDS011;44210;42.706;18.344;2022-12-18T16:48:26;6.95;;;5.05;;
58414;SDS011;44210;42.706;18.344;2022-12-18T16:50:57;8.93;;;6.20;;
58414;SDS011;44210;42.706;18.344;2022-12-18T16:53:25;7.88;;;4.97;;
58414;SDS011;44210;42.706;18.344;2022-12-18T16:55:54;8.50;;;5.72;;
58414;SDS011;44210;42.706;18.344;2022-12-18T16:58:20;10.00;;;5.75;;
58414;SDS011;44210;42.706;18.344;2022-12-18T17:00:46;6.68;;;5.00;;